createdAt,value
2019-04-05T00:01:01.535Z,20.30
2019-04-05T00:03:31.543Z,22.62
2019-04-05T00:05:59.980Z,19.27
2019-04-05T00:08:28.534Z,24.92
2019-04-05T00:10:58.641Z,20.62
2019-04-05T00:13:27.169Z,24.55
2019-04-05T00:15:57.383Z,22.05
2019-04-05T00:18:25.807Z,23.90
2019-04-05T00:20:54.293Z,24.47
2019-04-05T00:23:22.745Z,29.48
2019-04-05T00:25:51.171Z,24.90
2019-04-05T00:28:19.607Z,24.85
2019-04-05T00:30:48.117Z,30.92
2019-04-05T00:33:16.545Z,25.02
2019-04-05T00:35:45.025Z,26.52
2019-04-05T00:38:13.572Z,25.37
2019-04-05T00:40:42.017Z,27.05
2019-04-05T00:43:10.448Z,27.30
2019-04-05T00:45:38.967Z,24.63
2019-04-05T00:48:07.541Z,26.20
2019-04-05T00:50:36.051Z,28.65
2019-04-05T00:53:04.557Z,27.17
2019-04-05T00:55:33.131Z,31.45
2019-04-05T00:58:01.745Z,30.45
2019-04-05T01:00:30.249Z,29.07
2019-04-05T01:02:58.823Z,26.42
2019-04-05T01:05:27.345Z,25.97
2019-04-05T01:07:56.007Z,29.23
2019-04-05T01:10:24.531Z,27.93
2019-04-05T01:12:53.109Z,30.37
2019-04-05T01:15:21.629Z,28.12
2019-04-05T01:17:50.264Z,27.60
2019-04-05T01:20:18.792Z,30.68
2019-04-05T01:22:47.367Z,27.62
2019-04-05T01:25:16.033Z,27.55
2019-04-05T01:27:44.723Z,30.40
2019-04-05T01:30:16.272Z,28.15
2019-04-05T01:32:45.557Z,27.62
2019-04-05T01:35:14.131Z,32.28
2019-04-05T01:37:42.747Z,31.80
2019-04-05T01:40:12.026Z,29.63
2019-04-05T01:42:40.711Z,30.25
2019-04-05T01:45:09.584Z,27.67
2019-04-05T01:47:38.162Z,28.17
2019-04-05T01:50:09.024Z,32.45
2019-04-05T01:52:38.440Z,31.02
2019-04-05T01:55:07.746Z,27.35
2019-04-05T01:57:36.204Z,26.68
2019-04-05T02:00:07.888Z,28.62
2019-04-05T02:02:36.498Z,25.80
2019-04-05T02:05:07.661Z,28.60
2019-04-05T02:07:36.838Z,29.18
2019-04-05T02:10:10.122Z,26.70
2019-04-05T02:12:39.019Z,26.48
2019-04-05T02:15:08.880Z,26.12
2019-04-05T02:17:37.555Z,28.83
2019-04-05T02:20:08.693Z,24.07
2019-04-05T02:22:37.416Z,28.42
2019-04-05T02:25:06.919Z,24.30
2019-04-05T02:27:35.683Z,23.02
2019-04-05T02:30:06.154Z,24.02
2019-04-05T02:32:34.624Z,21.05
2019-04-05T02:35:03.501Z,21.65
2019-04-05T02:37:32.012Z,19.27
2019-04-05T02:40:00.454Z,21.25
2019-04-05T02:42:29.435Z,19.07
2019-04-05T02:44:59.466Z,18.15
2019-04-05T02:47:28.435Z,19.07
2019-04-05T02:49:58.524Z,18.05
2019-04-05T02:52:28.998Z,22.10
2019-04-05T02:54:58.581Z,21.75
2019-04-05T02:57:28.437Z,20.97
2019-04-05T02:59:57.365Z,20.95
2019-04-05T03:02:26.357Z,17.85
2019-04-05T03:04:55.640Z,24.60
2019-04-05T03:07:26.267Z,25.43
2019-04-05T03:09:55.667Z,16.93
2019-04-05T03:12:24.328Z,20.32
2019-04-05T03:14:53.016Z,19.27
2019-04-05T03:17:23.578Z,20.30
2019-04-05T03:19:54.138Z,20.77
2019-04-05T03:22:24.105Z,17.60
2019-04-05T03:24:52.988Z,17.90
2019-04-05T03:27:24.543Z,17.20
2019-04-05T03:29:53.659Z,16.93
2019-04-05T03:32:22.323Z,19.82
2019-04-05T03:34:50.780Z,17.50
2019-04-05T03:37:19.540Z,20.17
2019-04-05T03:39:48.232Z,16.20
2019-04-05T03:42:17.001Z,14.25
2019-04-05T03:44:45.586Z,18.15
2019-04-05T03:47:14.353Z,17.27
2019-04-05T03:49:43.037Z,19.67
2019-04-05T03:52:11.645Z,19.85
2019-04-05T03:54:40.231Z,17.00
2019-04-05T03:57:08.839Z,17.57
2019-04-05T03:59:37.395Z,14.65
2019-04-05T04:02:06.047Z,14.87
2019-04-05T04:04:34.565Z,17.37
2019-04-05T04:07:03.538Z,16.70
2019-04-05T04:09:32.194Z,16.52
2019-04-05T04:12:00.876Z,13.43
2019-04-05T04:14:29.457Z,13.50
2019-04-05T04:17:11.326Z,13.45
2019-04-05T04:19:29.066Z,10.55
2019-04-05T04:22:19.988Z,12.70
2019-04-05T04:24:49.047Z,11.85
2019-04-05T04:27:17.739Z,11.75
2019-04-05T04:29:46.303Z,10.58
2019-04-05T04:32:16.971Z,11.75
2019-04-05T04:34:45.661Z,10.03
2019-04-05T04:37:14.376Z,9.50
2019-04-05T04:39:43.058Z,9.83
2019-04-05T04:42:12.261Z,12.33
2019-04-05T04:44:41.684Z,10.78
2019-04-05T04:47:25.006Z,11.85
2019-04-05T04:49:41.562Z,10.98
2019-04-05T04:52:10.651Z,11.10
2019-04-05T04:54:41.126Z,10.85
2019-04-05T04:57:09.808Z,11.00
2019-04-05T04:59:38.287Z,11.35
2019-04-05T05:02:06.875Z,12.23
2019-04-05T05:04:35.571Z,12.58
2019-04-05T05:07:04.540Z,10.65
2019-04-05T05:09:33.510Z,14.58
2019-04-05T05:12:03.738Z,12.90
2019-04-05T05:14:32.580Z,14.33
2019-04-05T05:17:01.272Z,13.65
2019-04-05T05:19:30.146Z,14.87
2019-04-05T05:21:58.810Z,14.70
2019-04-05T05:24:27.559Z,16.48
2019-04-05T05:26:56.579Z,21.82
2019-04-05T05:29:26.734Z,21.90
2019-04-05T05:31:55.484Z,20.10
2019-04-05T05:34:24.367Z,23.55
2019-04-05T05:36:53.231Z,20.68
2019-04-05T05:39:21.997Z,22.90
2019-04-05T05:41:50.520Z,20.52
2019-04-05T05:44:19.060Z,22.13
2019-04-05T05:46:47.551Z,24.60
2019-04-05T05:49:16.001Z,20.65
2019-04-05T05:51:44.978Z,23.52
2019-04-05T05:54:13.410Z,22.30
2019-04-05T05:56:41.839Z,20.80
2019-04-05T05:59:10.282Z,22.50
2019-04-05T06:01:38.706Z,23.40
2019-04-05T06:04:07.166Z,24.40
2019-04-05T06:06:37.242Z,24.45
2019-04-05T06:09:07.640Z,21.23
2019-04-05T06:11:36.124Z,20.43
2019-04-05T06:14:04.703Z,25.80
2019-04-05T06:16:45.554Z,25.37
2019-04-05T06:19:03.611Z,26.20
2019-04-05T06:21:32.090Z,24.77
2019-04-05T06:24:00.551Z,23.47
2019-04-05T06:26:28.974Z,25.48
2019-04-05T06:28:57.552Z,23.07
2019-04-05T06:31:25.982Z,24.70
2019-04-05T06:33:54.442Z,29.98
2019-04-05T06:36:22.876Z,25.72
2019-04-05T06:38:51.284Z,23.70
2019-04-05T06:41:19.749Z,23.40
2019-04-05T06:43:48.162Z,24.25
2019-04-05T06:46:16.678Z,30.55
2019-04-05T06:48:45.106Z,29.10
2019-04-05T06:51:13.547Z,27.25
2019-04-05T06:53:42.080Z,26.30
2019-04-05T06:56:10.526Z,29.12
2019-04-05T06:58:38.962Z,28.23
2019-04-05T07:01:07.448Z,28.38
2019-04-05T07:03:35.861Z,32.60
2019-04-05T07:06:04.404Z,31.02
2019-04-05T07:08:32.823Z,25.80
2019-04-05T07:11:01.285Z,33.80
2019-04-05T07:13:29.710Z,30.23
2019-04-05T07:15:58.151Z,25.32
2019-04-05T07:18:35.733Z,31.73
2019-04-05T07:20:58.011Z,31.05
2019-04-05T07:23:26.796Z,34.25
2019-04-05T07:25:55.295Z,30.65
2019-04-05T07:28:25.112Z,35.98
2019-04-05T07:30:53.911Z,35.90
2019-04-05T07:33:22.362Z,33.55
2019-04-05T07:35:50.794Z,29.00
2019-04-05T07:38:19.229Z,26.75
2019-04-05T07:40:47.727Z,27.98
2019-04-05T07:43:16.218Z,26.75
2019-04-05T07:45:46.026Z,29.82
2019-04-05T07:48:14.719Z,24.87
2019-04-05T07:50:43.138Z,25.43
2019-04-05T07:53:11.595Z,20.05
2019-04-05T07:55:40.096Z,25.37
2019-04-05T07:58:08.555Z,20.65
2019-04-05T08:00:46.260Z,21.95
2019-04-05T08:03:14.871Z,28.55
2019-04-05T08:05:44.907Z,20.77
2019-04-05T08:08:19.190Z,22.15
2019-04-05T08:10:48.111Z,20.50
2019-04-05T08:13:17.697Z,18.77
2019-04-05T08:15:46.201Z,22.13
2019-04-05T08:18:14.905Z,18.25
2019-04-05T08:20:43.327Z,16.10
2019-04-05T08:23:11.779Z,21.42
2019-04-05T08:25:41.343Z,20.25
2019-04-05T08:28:09.922Z,17.12
2019-04-05T08:30:38.424Z,15.60
2019-04-05T08:33:06.863Z,14.83
2019-04-05T08:35:35.384Z,15.13
2019-04-05T08:38:03.887Z,17.15
2019-04-05T08:40:32.392Z,17.87
2019-04-05T08:43:00.838Z,23.02
2019-04-05T08:45:29.278Z,16.67
2019-04-05T08:47:57.749Z,17.85
2019-04-05T08:50:26.184Z,13.85
2019-04-05T08:52:54.599Z,13.80
2019-04-05T08:55:23.034Z,15.93
2019-04-05T08:57:51.516Z,13.18
2019-04-05T09:00:20.398Z,14.43
2019-04-05T09:02:48.863Z,13.88
2019-04-05T09:05:17.482Z,11.10
2019-04-05T09:07:45.997Z,14.47
2019-04-05T09:10:14.524Z,15.05
2019-04-05T09:12:42.984Z,13.22
2019-04-05T09:15:11.681Z,12.28
2019-04-05T09:17:40.102Z,13.35
2019-04-05T09:20:08.688Z,12.33
2019-04-05T09:22:37.113Z,10.93
2019-04-05T09:25:06.994Z,12.50
2019-04-05T09:27:35.425Z,12.15
2019-04-05T09:30:06.450Z,17.27
2019-04-05T09:32:36.589Z,14.43
2019-04-05T09:35:08.395Z,14.33
2019-04-05T09:37:36.863Z,14.70
2019-04-05T09:40:07.055Z,11.70
2019-04-05T09:42:35.481Z,14.07
2019-04-05T09:45:07.673Z,13.93
2019-04-05T09:47:36.192Z,13.60
2019-04-05T09:50:06.572Z,11.50
2019-04-05T09:52:35.031Z,14.25
2019-04-05T09:55:03.897Z,12.65
2019-04-05T09:57:32.343Z,16.10
2019-04-05T10:00:02.404Z,20.65
2019-04-05T10:02:31.879Z,11.97
2019-04-05T10:05:00.494Z,15.45
2019-04-05T10:07:28.938Z,13.98
2019-04-05T10:09:57.459Z,14.93
2019-04-05T10:12:25.950Z,16.23
2019-04-05T10:14:54.469Z,21.65
2019-04-05T10:17:22.922Z,14.75
2019-04-05T10:19:51.367Z,16.75
2019-04-05T10:22:21.340Z,15.00
2019-04-05T10:24:49.787Z,17.80
2019-04-05T10:27:18.239Z,15.78
2019-04-05T10:29:49.363Z,13.78
2019-04-05T10:32:16.865Z,16.85
2019-04-05T10:34:45.427Z,13.32
2019-04-05T10:37:13.871Z,13.55
2019-04-05T10:39:42.319Z,14.00
2019-04-05T10:42:29.217Z,14.73
2019-04-05T10:44:57.634Z,12.60
2019-04-05T10:47:26.251Z,16.82
2019-04-05T10:50:02.842Z,14.85
2019-04-05T10:52:25.049Z,15.70
2019-04-05T10:54:53.675Z,19.50
2019-04-05T10:57:22.095Z,18.62
2019-04-05T10:59:50.663Z,14.43
2019-04-05T11:02:20.903Z,17.85
2019-04-05T11:04:49.347Z,15.60
2019-04-05T11:07:19.306Z,14.10
2019-04-05T11:09:47.762Z,16.25
2019-04-05T11:12:16.192Z,18.45
2019-04-05T11:14:44.627Z,18.20
2019-04-05T11:17:13.047Z,22.58
2019-04-05T11:19:41.513Z,19.87
2019-04-05T11:22:09.943Z,16.73
2019-04-05T11:24:39.926Z,16.35
2019-04-05T11:27:10.052Z,17.07
2019-04-05T11:29:38.504Z,18.30
2019-04-05T11:32:07.008Z,16.70
2019-04-05T11:34:35.537Z,15.72
2019-04-05T11:37:04.375Z,18.25
2019-04-05T11:39:34.654Z,16.23
2019-04-05T11:42:04.411Z,15.40
2019-04-05T11:44:33.880Z,14.47
2019-04-05T11:47:03.607Z,16.62
2019-04-05T11:49:34.574Z,14.73
2019-04-05T11:52:03.085Z,14.03
2019-04-05T11:54:31.556Z,19.30
2019-04-05T11:56:59.982Z,15.95
2019-04-05T11:59:29.954Z,17.27
2019-04-05T12:02:00.010Z,16.35
2019-04-05T12:04:28.464Z,16.95
2019-04-05T12:06:56.886Z,19.98
2019-04-05T12:09:26.860Z,14.68
2019-04-05T12:11:55.294Z,18.98
2019-04-05T12:14:30.146Z,13.95
2019-04-05T12:16:54.105Z,19.17
2019-04-05T12:19:22.538Z,17.55
2019-04-05T12:21:51.006Z,18.10
2019-04-05T12:24:19.430Z,21.35
2019-04-05T12:26:47.889Z,21.05
2019-04-05T12:29:16.395Z,21.07
2019-04-05T12:31:44.929Z,19.52
2019-04-05T12:34:13.375Z,23.30
2019-04-05T12:36:41.830Z,22.55
2019-04-05T12:39:10.361Z,17.45
2019-04-05T12:41:40.970Z,18.27
2019-04-05T12:44:09.135Z,17.50
2019-04-05T12:46:37.593Z,17.62
2019-04-05T12:49:06.068Z,18.17
2019-04-05T12:51:34.608Z,18.50
2019-04-05T12:54:03.060Z,16.12
2019-04-05T12:56:31.511Z,22.30
2019-04-05T12:59:00.125Z,17.00
2019-04-05T13:01:28.575Z,19.55
2019-04-05T13:03:58.834Z,15.78
2019-04-05T13:06:27.499Z,20.20
2019-04-05T13:08:55.947Z,17.77
2019-04-05T13:11:26.734Z,14.47
2019-04-05T13:13:56.364Z,16.77
2019-04-05T13:16:24.683Z,17.32
2019-04-05T13:18:53.143Z,24.05
2019-04-05T13:21:26.066Z,18.23
2019-04-05T13:23:51.856Z,18.12
2019-04-05T13:26:20.308Z,21.27
2019-04-05T13:28:49.299Z,14.65
2019-04-05T13:31:18.827Z,15.83
2019-04-05T13:33:47.462Z,16.85
2019-04-05T13:36:15.922Z,15.75
2019-04-05T13:38:54.289Z,14.55
2019-04-05T13:41:14.519Z,13.72
2019-04-05T13:43:44.501Z,17.23
2019-04-05T13:46:22.064Z,14.87
2019-04-05T13:48:43.269Z,15.75
2019-04-05T13:51:12.899Z,15.40
2019-04-05T13:53:41.568Z,17.40
2019-04-05T13:56:10.961Z,14.78
2019-04-05T13:58:39.676Z,20.68
2019-04-05T14:01:08.179Z,16.50
2019-04-05T14:03:36.644Z,15.45
2019-04-05T14:06:05.250Z,15.50
2019-04-05T14:08:33.692Z,14.13
2019-04-05T14:11:02.258Z,13.93
2019-04-05T14:13:30.704Z,17.60
2019-04-05T14:15:59.147Z,16.75
2019-04-05T14:18:27.578Z,17.60
2019-04-05T14:20:56.024Z,16.27
2019-04-05T14:23:24.453Z,14.07
2019-04-05T14:25:52.995Z,18.75
2019-04-05T14:28:21.422Z,20.60
2019-04-05T14:30:49.887Z,14.93
2019-04-05T14:33:18.314Z,16.35
2019-04-05T14:35:46.778Z,16.90
2019-04-05T14:38:15.285Z,16.35
2019-04-05T14:40:43.733Z,16.82
2019-04-05T14:43:12.752Z,16.42
2019-04-05T14:45:42.474Z,15.28
2019-04-05T14:48:10.912Z,17.75
2019-04-05T14:50:39.354Z,15.23
2019-04-05T14:53:07.842Z,18.27
2019-04-05T14:55:36.306Z,22.93
2019-04-05T14:58:06.042Z,19.55
2019-04-05T15:00:35.208Z,16.12
2019-04-05T15:03:03.961Z,14.78
2019-04-05T15:05:32.471Z,20.27
2019-04-05T15:08:00.934Z,13.90
2019-04-05T15:10:29.374Z,14.98
2019-04-05T15:13:00.076Z,16.23
2019-04-05T15:15:28.319Z,16.77
2019-04-05T15:17:56.772Z,16.77
2019-04-05T15:20:25.216Z,15.60
2019-04-05T15:22:53.682Z,18.55
2019-04-05T15:25:22.112Z,19.65
2019-04-05T15:27:55.156Z,19.15
2019-04-05T15:30:20.877Z,18.02
2019-04-05T15:32:51.374Z,17.70
2019-04-05T15:35:19.584Z,16.37
2019-04-05T15:37:48.023Z,17.82
2019-04-05T15:40:18.666Z,16.97
2019-04-05T15:42:47.182Z,17.80
2019-04-05T15:45:16.677Z,19.60
2019-04-05T15:47:45.184Z,17.85
2019-04-05T15:50:13.951Z,18.65
2019-04-05T15:52:42.413Z,17.77
2019-04-05T15:55:10.996Z,22.95
2019-04-05T15:57:39.621Z,18.62
2019-04-05T16:00:11.344Z,22.32
2019-04-05T16:02:42.845Z,17.65
2019-04-05T16:05:11.007Z,18.37
2019-04-05T16:07:39.639Z,26.48
2019-04-05T16:10:09.522Z,25.82
2019-04-05T16:12:38.098Z,24.77
2019-04-05T16:15:07.887Z,18.27
2019-04-05T16:17:36.459Z,20.20
2019-04-05T16:20:10.264Z,20.23
2019-04-05T16:22:38.760Z,21.65
2019-04-05T16:25:08.785Z,21.07
2019-04-05T16:27:37.334Z,20.97
2019-04-05T16:30:07.404Z,22.25
2019-04-05T16:32:35.819Z,18.40
2019-04-05T16:35:07.737Z,23.80
2019-04-05T16:37:36.181Z,22.15
2019-04-05T16:40:08.268Z,22.93
2019-04-05T16:42:36.880Z,23.02
2019-04-05T16:45:08.447Z,25.30
2019-04-05T16:47:36.981Z,23.80
2019-04-05T16:50:09.327Z,25.17
2019-04-05T16:52:45.260Z,29.55
2019-04-05T16:55:09.861Z,31.75
2019-04-05T16:57:38.424Z,25.15
2019-04-05T17:00:09.343Z,28.05
2019-04-05T17:02:38.112Z,31.62
2019-04-05T17:05:07.734Z,26.57
2019-04-05T17:07:36.164Z,25.40
2019-04-05T17:10:05.510Z,25.43
2019-04-05T17:12:34.017Z,23.98
2019-04-05T17:15:02.452Z,28.38
2019-04-05T17:17:30.920Z,29.50
2019-04-05T17:19:59.379Z,22.65
2019-04-05T17:22:27.842Z,27.93
2019-04-05T17:24:56.292Z,27.40
2019-04-05T17:27:24.728Z,25.97
2019-04-05T17:29:54.710Z,30.40
2019-04-05T17:32:23.158Z,25.05
2019-04-05T17:34:51.623Z,26.02
2019-04-05T17:37:20.083Z,26.77
2019-04-05T17:39:48.555Z,22.90
2019-04-05T17:42:17.018Z,28.80
2019-04-05T17:44:45.434Z,27.75
2019-04-05T17:47:13.903Z,25.17
2019-04-05T17:49:42.396Z,25.60
2019-04-05T17:52:10.870Z,26.48
2019-04-05T17:54:39.370Z,29.02
2019-04-05T17:57:07.895Z,25.77
2019-04-05T17:59:37.023Z,29.80
2019-04-05T18:02:05.547Z,29.63
2019-04-05T18:04:35.554Z,31.00
2019-04-05T18:07:04.447Z,28.77
2019-04-05T18:09:32.971Z,31.82
2019-04-05T18:12:01.460Z,32.53
2019-04-05T18:14:29.942Z,26.93
2019-04-05T18:16:58.383Z,33.58
2019-04-05T18:19:26.902Z,31.20
2019-04-05T18:21:57.059Z,35.75
2019-04-05T18:24:27.017Z,32.05
2019-04-05T18:26:55.581Z,29.23
2019-04-05T18:29:24.032Z,28.73
2019-04-05T18:31:52.499Z,29.52
2019-04-05T18:34:20.942Z,28.87
2019-04-05T18:36:49.632Z,32.50
2019-04-05T18:39:18.091Z,30.55
2019-04-05T18:41:46.611Z,28.67
2019-04-05T18:44:15.065Z,30.23
2019-04-05T18:46:43.517Z,33.70
2019-04-05T18:49:12.038Z,33.78
2019-04-05T18:51:40.459Z,32.85
2019-04-05T18:54:08.919Z,27.85
2019-04-05T18:56:37.350Z,35.28
2019-04-05T18:59:05.875Z,34.73
2019-04-05T19:01:34.310Z,31.30
2019-04-05T19:04:05.344Z,30.82
2019-04-05T19:06:33.048Z,38.70
2019-04-05T19:09:01.786Z,31.52
2019-04-05T19:11:30.251Z,32.83
2019-04-05T19:14:01.376Z,31.27
2019-04-05T19:16:28.984Z,29.05
2019-04-05T19:18:57.484Z,32.98
2019-04-05T19:21:25.930Z,31.62
2019-04-05T19:23:54.383Z,29.65
2019-04-05T19:26:22.851Z,32.85
2019-04-05T19:28:51.291Z,31.82
2019-04-05T19:48:52.664Z,30.60
2019-04-05T19:51:21.118Z,32.17
2019-04-05T19:53:49.600Z,33.85
2019-04-05T19:56:18.054Z,33.30
2019-04-05T19:58:46.471Z,31.75
2019-04-05T20:01:14.938Z,30.88
2019-04-05T20:03:43.388Z,40.17
2019-04-05T20:06:12.000Z,34.20
2019-04-05T20:08:40.430Z,36.40
2019-04-05T20:11:08.889Z,43.30
2019-04-05T20:13:37.311Z,32.93
2019-04-05T20:16:05.830Z,36.00
2019-04-05T20:18:34.486Z,35.43
2019-04-05T20:21:03.026Z,33.48
2019-04-05T20:23:31.475Z,35.52
2019-04-05T20:25:59.901Z,37.73
2019-04-05T20:28:29.343Z,37.05
2019-04-05T20:30:57.796Z,35.28
2019-04-05T20:33:26.245Z,32.90
2019-04-05T20:35:54.730Z,32.83
2019-04-05T20:38:24.730Z,36.73
2019-04-05T20:40:53.172Z,38.17
2019-04-05T20:43:21.618Z,32.15
2019-04-05T20:45:50.042Z,35.75
2019-04-05T20:48:18.526Z,32.05
2019-04-05T20:50:49.739Z,31.20
2019-04-05T20:53:18.254Z,37.03
2019-04-05T20:55:46.711Z,30.25
2019-04-05T20:58:15.155Z,38.00
2019-04-05T21:00:43.641Z,37.58
2019-04-05T21:03:12.094Z,31.23
2019-04-05T21:05:40.519Z,34.33
2019-04-05T21:08:10.537Z,33.70
2019-04-05T21:10:39.015Z,36.40
2019-04-05T21:13:07.463Z,34.20
2019-04-05T21:15:35.906Z,37.28
2019-04-05T21:18:04.431Z,38.50
2019-04-05T21:20:32.889Z,39.05
2019-04-05T21:23:01.319Z,36.13
2019-04-05T21:25:29.745Z,39.53
2019-04-05T21:27:58.190Z,39.03
2019-04-05T21:30:28.173Z,34.18
2019-04-05T21:32:58.454Z,38.58
2019-04-05T21:35:26.963Z,35.68
2019-04-05T21:37:55.420Z,37.03
2019-04-05T21:40:23.953Z,32.17
2019-04-05T21:42:52.406Z,39.67
2019-04-05T21:45:20.907Z,41.35
2019-04-05T21:47:49.391Z,43.78
2019-04-05T21:50:17.989Z,47.45
2019-04-05T21:52:46.386Z,38.50
2019-04-05T21:55:14.852Z,36.75
2019-04-05T21:57:44.908Z,42.75
2019-04-05T22:00:22.492Z,44.58
2019-04-05T22:02:51.000Z,41.35
2019-04-05T22:05:19.535Z,45.20
2019-04-05T22:07:47.968Z,39.78
2019-04-05T22:10:16.606Z,47.50
2019-04-05T22:12:45.036Z,42.58
2019-04-05T22:15:13.830Z,45.52
2019-04-05T22:17:42.248Z,42.00
2019-04-05T22:20:10.932Z,42.83
2019-04-05T22:22:39.374Z,34.50
2019-04-05T22:25:08.159Z,38.75
2019-04-05T22:27:36.584Z,35.20
2019-04-05T22:30:07.556Z,40.88
2019-04-05T22:32:35.975Z,43.50
2019-04-05T22:35:05.260Z,29.20
2019-04-05T22:37:33.731Z,41.48
2019-04-05T22:40:02.297Z,35.05
2019-04-05T22:42:30.763Z,37.70
2019-04-05T22:44:59.204Z,38.90
2019-04-05T22:47:27.646Z,38.60
2019-04-05T22:49:56.146Z,44.58
2019-04-05T22:52:24.623Z,35.85
2019-04-05T22:54:53.061Z,41.53
2019-04-05T22:57:21.519Z,38.00
2019-04-05T22:59:50.026Z,48.87
2019-04-05T23:02:18.542Z,40.45
2019-04-05T23:04:47.030Z,35.43
2019-04-05T23:07:15.476Z,39.00
2019-04-05T23:09:43.898Z,49.10
2019-04-05T23:12:12.344Z,44.93
2019-04-05T23:14:40.807Z,49.38
2019-04-05T23:17:09.247Z,43.17
2019-04-05T23:19:39.339Z,47.95
2019-04-05T23:22:07.859Z,45.30
2019-04-05T23:24:36.288Z,38.83
2019-04-05T23:27:04.786Z,41.83
2019-04-05T23:29:33.234Z,41.83
2019-04-05T23:32:01.670Z,44.20
2019-04-05T23:34:30.107Z,45.17
2019-04-05T23:37:00.086Z,43.20
2019-04-05T23:39:28.527Z,44.48
2019-04-05T23:41:56.949Z,40.98
2019-04-05T23:44:25.407Z,36.70
2019-04-05T23:46:55.475Z,46.15
2019-04-05T23:49:23.930Z,38.40
2019-04-05T23:51:52.367Z,49.25
2019-04-05T23:54:20.811Z,49.65
2019-04-05T23:56:49.248Z,50.08
2019-04-05T23:59:17.727Z,41.68
